Latest Weather Observations for Tewantin

IDQ60801

Issued at 2:32 pm EST Thursday 14 December 2017 (issued every 30 minutes, with the page automatically refreshed every 10 minutes)

About weather observations | Map of weather stations | Latest weather observations for QLD | Other Formats
Station Details ID: 040908 Name: TEWANTIN RSL PARK Lat: -26.39 Lon: 153.04 Height: 6.4 m
Data from the previous 72 hours. | See also: Recent months at Tewantin
Date/Time
EST
Temp
°C
App
Temp
°C
Dew
Point
°C
Rel
Hum
%
Delta-T
°C
Wind Press
QNH
hPa
Press
MSL
hPa
Rain since
9am
mm
Dir  Spd
km/h
Gust
km/h
Spd
kts
Gust
kts
14/02:30pm 26.3 26.1 16.8 56 5.9 ESE 13 19 7 10 1011.4 1011.4 0.0
14/02:00pm 26.8 27.0 17.6 57 5.8 ESE 13 19 7 10 1011.4 1011.4 0.0
14/01:30pm 26.8 27.1 17.0 55 6.1 ESE 11 19 6 10 1011.6 1011.6 0.0
14/01:00pm 26.6 26.4 16.8 55 6.1 ESE 13 20 7 11 1011.9 1011.9 0.0
14/12:30pm 27.2 27.3 17.4 55 6.2 E 13 19 7 10 1012.1 1012.1 0.0
14/12:00pm 26.5 27.3 18.1 60 5.3 E 11 17 6 9 1012.3 1012.3 0.0
14/11:30am 26.1 26.7 16.9 57 5.7 ESE 9 17 5 9 1012.6 1012.6 0.0
14/11:00am 26.5 26.9 17.3 57 5.8 ESE 11 20 6 11 1012.7 1012.7 0.0
14/10:30am 26.8 26.9 16.4 53 6.4 ESE 11 19 6 10 1013.0 1013.0 0.0
14/10:00am 26.5 26.6 15.5 50 6.7 ESE 9 20 5 11 1013.4 1013.4 0.0
14/09:30am 26.6 27.3 17.1 56 5.9 ENE 9 17 5 9 1013.6 1013.6 0.0
14/09:00am 26.0 25.8 15.7 53 6.3 ESE 11 15 6 8 1013.8 1013.8 0.0
14/08:30am 25.9 26.8 17.5 59 5.3 E 9 17 5 9 1013.8 1013.8 0.0
14/08:00am 25.7 27.4 18.1 63 4.8 SE 6 11 3 6 1013.8 1013.8 0.0
14/07:30am 24.7 26.4 18.6 69 3.9 SSE 7 11 4 6 1013.9 1013.9 0.0
14/07:00am 23.6 24.8 18.3 72 3.3 S 9 13 5 7 1013.8 1013.8 0.0
14/06:30am 22.3 23.4 17.9 76 2.7 SSW 9 13 5 7 1013.7 1013.7 0.0
14/06:00am 21.5 23.6 18.9 85 1.6 SSW 6 9 3 5 1013.3 1013.3 0.0
14/05:30am 19.9 22.0 18.0 89 1.2 SW 4 9 2 5 1013.1 1013.1 0.0
14/05:00am 19.9 22.9 18.4 91 0.9 CALM 0 0 0 0 1012.8 1012.8 0.0
14/04:30am 20.1 21.6 18.1 88 1.2 SW 7 9 4 5 1012.6 1012.6 0.0
14/04:00am 20.0 21.5 18.1 89 1.2 SSW 7 11 4 6 1012.5 1012.5 0.0
14/03:30am 19.7 21.1 17.7 88 1.2 SW 7 9 4 5 1012.5 1012.5 0.0
14/03:00am 20.2 21.7 18.0 87 1.4 SSW 7 9 4 5 1012.6 1012.6 0.0
14/02:30am 20.4 21.9 18.0 86 1.5 SSW 7 9 4 5 1012.7 1012.7 0.0
14/02:00am 20.6 22.1 18.0 85 1.6 SW 7 9 4 5 1012.9 1012.9 0.0
14/01:30am 20.7 22.7 17.9 84 1.7 SW 4 9 2 5 1013.2 1013.2 0.0
14/01:00am 20.9 22.5 17.9 83 1.9 SW 6 9 3 5 1013.3 1013.3 0.0
14/12:30am 21.4 23.2 18.4 83 1.9 SW 6 7 3 4 1013.7 1013.7 0.0
14/12:00am 21.8 23.5 18.0 79 2.4 SSW 6 7 3 4 1014.0 1014.0 0.0
 
Date/Time
EST
Temp
°C
App
Temp
°C
Dew
Point
°C
Rel
Hum
%
Delta-T
°C
Wind Press
QNH
hPa
Press
MSL
hPa
Rain since
9am
mm
Dir  Spd
km/h
Gust
km/h
Spd
kts
Gust
kts
13/11:30pm 22.5 25.1 17.6 74 3.0 CALM 0 0 0 0 1014.5 1014.5 0.0
13/11:00pm 22.9 24.5 17.8 73 3.2 ESE 6 7 3 4 1014.7 1014.7 0.0
13/10:30pm 23.4 24.4 17.8 71 3.5 ESE 9 13 5 7 1015.0 1015.0 0.0
13/10:00pm 23.5 24.7 18.2 72 3.3 E 9 17 5 9 1015.0 1015.0 0.0
13/09:30pm 23.6 24.8 18.3 72 3.3 E 9 13 5 7 1015.2 1015.2 0.0
13/09:00pm 23.7 24.6 18.4 72 3.3 ESE 11 17 6 9 1015.0 1015.0 0.0
13/08:30pm 23.8 25.2 18.7 73 3.2 SE 9 13 5 7 1014.9 1014.9 0.0
13/08:00pm 23.6 24.7 18.0 71 3.5 ESE 9 15 5 8 1014.8 1014.8 0.0
13/07:30pm 23.8 24.6 18.2 71 3.5 ESE 11 17 6 9 1014.6 1014.6 0.0
13/07:00pm 24.0 24.9 18.4 71 3.5 ESE 11 17 6 9 1014.5 1014.5 0.0
13/06:30pm 24.1 25.2 18.1 69 3.8 SE 9 15 5 8 1014.4 1014.4 0.0
13/06:00pm 24.4 25.2 18.1 68 4.0 ESE 11 19 6 10 1014.3 1014.3 0.0
13/05:30pm 24.6 25.0 18.1 67 4.1 ESE 13 20 7 11 1014.1 1014.1 0.0
13/05:00pm 24.9 25.2 17.9 65 4.4 ESE 13 22 7 12 1013.6 1013.6 0.0
13/04:30pm 24.9 24.3 17.6 64 4.6 SE 17 26 9 14 1013.4 1013.4 0.0
13/04:00pm 25.1 25.1 18.1 65 4.4 ESE 15 24 8 13 1013.3 1013.3 0.0
13/03:30pm 25.6 25.8 18.5 65 4.5 ESE 15 22 8 12 1013.2 1013.2 0.0
13/03:00pm 25.5 25.0 17.7 62 4.9 SE 17 26 9 14 1013.4 1013.4 0.0
13/02:30pm 25.5 25.2 18.2 64 4.6 SE 17 24 9 13 1013.6 1013.6 0.0
13/02:00pm 25.8 25.4 17.2 59 5.4 SE 15 24 8 13 1014.0 1014.0 0.0
13/01:30pm 25.9 25.3 17.5 59 5.3 SE 17 26 9 14 1014.1 1014.1 0.0
13/01:00pm 26.1 25.5 17.5 59 5.4 SE 17 30 9 16 1014.3 1014.3 0.0
13/12:30pm 26.4 26.8 19.0 63 4.7 SE 15 24 8 13 1014.5 1014.5 0.0
13/12:00pm 25.6 25.5 17.8 62 4.9 SE 15 28 8 15 1014.8 1014.8 0.0
13/11:30am 26.0 25.9 18.7 64 4.7 ESE 17 28 9 15 1015.2 1015.2 0.0
13/11:00am 25.8 25.5 18.2 63 4.8 SE 17 26 9 14 1015.5 1015.5 0.0
13/10:30am 25.5 24.4 17.7 62 4.9 SE 20 32 11 17 1015.5 1015.5 0.0
13/10:00am 25.7 25.3 17.1 59 5.3 SE 15 30 8 16 1015.5 1015.5 0.0
13/09:30am 25.1 24.4 17.3 62 4.9 SE 17 26 9 14 1015.5 1015.5 0.0
13/09:00am 25.6 25.9 17.8 62 4.9 SE 13 24 7 13 1015.5 1015.5 2.0
13/08:30am 25.6 25.2 18.0 63 4.8 SE 17 28 9 15 1015.6 1015.6 2.0
13/08:00am 25.2 24.5 17.4 62 4.9 SE 17 24 9 13 1015.4 1015.4 2.0
13/07:30am 25.0 24.0 16.7 60 5.1 SE 17 28 9 15 1015.3 1015.3 2.0
13/07:00am 24.7 24.6 16.9 62 4.8 SSE 13 24 7 13 1015.1 1015.1 2.0
13/06:30am 23.2 24.5 18.5 75 3.0 SSW 9 15 5 8 1014.8 1014.8 2.0
13/06:00am 22.5 23.6 18.1 76 2.7 SSW 9 13 5 7 1014.5 1014.5 2.0
13/05:30am 22.2 23.0 17.3 74 3.0 S 9 15 5 8 1014.3 1014.3 2.0
13/05:00am 22.5 22.9 17.2 72 3.3 SE 11 19 6 10 1013.9 1013.9 2.0
13/04:30am 22.6 23.2 16.9 70 3.5 SE 9 15 5 8 1013.8 1013.8 2.0
13/04:00am 22.6 23.4 17.3 72 3.3 SE 9 13 5 7 1013.8 1013.8 2.0
13/03:30am 22.9 23.2 16.9 69 3.7 SE 11 19 6 10 1013.8 1013.8 2.0
13/03:00am 22.3 23.8 18.9 81 2.1 SSE 9 17 5 9 1013.8 1013.8 2.0
13/02:30am 21.7 22.9 19.8 89 1.2 S 13 19 7 10 1013.8 1013.8 2.0
13/02:00am 21.6 22.9 19.2 86 1.5 SSW 11 15 6 8 1014.1 1014.1 2.0
13/01:30am 22.8 24.3 19.0 79 2.4 SSE 9 17 5 9 1014.4 1014.4 2.0
13/01:00am 22.9 24.8 19.7 82 2.0 SE 9 15 5 8 1014.7 1014.7 2.0
13/12:30am 23.4 24.6 19.1 77 2.7 SSE 11 22 6 12 1015.1 1015.1 1.8
13/12:00am 23.5 24.2 18.8 75 3.0 SSE 13 20 7 11 1015.5 1015.5 1.8
 
Date/Time
EST
Temp
°C
App
Temp
°C
Dew
Point
°C
Rel
Hum
%
Delta-T
°C
Wind Press
QNH
hPa
Press
MSL
hPa
Rain since
9am
mm
Dir  Spd
km/h
Gust
km/h
Spd
kts
Gust
kts
12/11:30pm 23.4 24.1 18.9 76 2.9 SSE 13 19 7 10 1016.0 1016.0 1.8
12/11:00pm 23.3 23.9 18.6 75 3.0 SSE 13 20 7 11 1016.3 1016.3 1.8
12/10:30pm 23.7 24.1 19.0 75 3.0 SE 15 26 8 14 1016.6 1016.6 1.8
12/10:00pm 23.5 23.8 18.8 75 3.0 SE 15 24 8 13 1016.6 1016.6 1.8
12/09:30pm 23.4 24.4 19.5 79 2.5 SSE 13 20 7 11 1016.5 1016.5 1.8
12/09:00pm 23.3 23.7 19.0 77 2.7 SSE 15 24 8 13 1016.5 1016.5 1.8
12/08:30pm 23.0 24.2 19.8 82 2.1 SSE 13 20 7 11 1016.4 1016.4 1.8
12/08:00pm 22.8 24.0 19.8 83 1.9 SSE 13 22 7 12 1016.5 1016.5 1.8
12/07:30pm 23.8 24.4 18.7 73 3.2 SSE 13 22 7 12 1016.3 1016.3 1.4
12/07:00pm 23.8 24.7 19.3 76 2.9 SSE 13 26 7 14 1016.1 1016.1 1.4
12/06:30pm 24.0 24.4 18.9 73 3.2 SSE 15 30 8 16 1016.0 1016.0 1.4
12/06:00pm 24.3 24.7 19.1 73 3.3 SSE 15 24 8 13 1015.7 1015.7 1.4
12/05:30pm 24.2 24.0 18.4 70 3.7 SSE 17 30 9 16 1015.4 1015.4 1.4
12/05:00pm 24.3 24.7 18.9 72 3.4 SSE 15 24 8 13 1015.2 1015.2 1.4
12/04:30pm 23.5 24.3 19.8 80 2.4 SSE 15 22 8 12 1015.0 1015.0 1.4
12/04:00pm 23.3 24.6 20.1 82 2.1 SSE 13 22 7 12 1015.0 1015.0 1.4
12/03:30pm 22.9 24.4 21.2 90 1.1 SE 15 26 8 14 1015.0 1015.0 1.4
12/03:00pm 23.1 23.1 20.2 84 1.9 SE 20 32 11 17 1015.0 1015.0 1.2
12/02:30pm 25.5 24.9 18.9 67 4.2 SSE 20 32 11 17 1015.1 1015.1 1.2
12/02:00pm 24.9 24.2 18.6 68 4.0 SSE 20 35 11 19 1015.3 1015.3 1.2
12/01:30pm 25.1 24.8 19.5 71 3.6 SSE 20 35 11 19 1015.5 1015.5 1.2
12/01:00pm 24.9 25.3 21.0 79 2.6 SSE 20 32 11 17 1015.7 1015.7 1.2
12/12:30pm 23.0 26.6 22.0 94 0.7 ESE 6 9 3 5 1015.9 1015.9 1.2
12/12:00pm 22.2 23.8 21.4 95 0.5 SSE 15 26 8 14 1016.3 1016.3 0.8
12/11:30am 21.9 23.3 21.1 95 0.5 SSE 15 26 8 14 1016.6 1016.6 0.8
12/11:00am 23.5 23.1 19.0 76 2.9 SSE 19 32 10 17 1016.6 1016.6 0.0
12/10:30am 23.3 24.3 18.6 75 3.0 SE 11 17 6 9 1016.7 1016.7 0.0
12/10:00am 23.4 23.5 17.4 69 3.7 SSE 13 20 7 11 1016.8 1016.8 0.0
12/09:30am 23.7 22.7 16.5 64 4.4 S 17 26 9 14 1016.7 1016.7 0.0
12/09:00am 23.7 22.7 16.7 65 4.3 S 17 26 9 14 1016.6 1016.6 6.2
12/08:30am 23.3 22.8 16.8 67 4.0 S 15 22 8 12 1016.6 1016.6 6.2
12/08:00am 23.7 22.3 16.5 64 4.4 S 19 26 10 14 1016.3 1016.3 6.2
12/07:30am 23.6 23.1 16.9 66 4.1 S 15 24 8 13 1016.2 1016.2 6.2
12/07:00am 22.8 21.7 16.4 67 3.9 S 17 26 9 14 1016.1 1016.1 6.2
12/06:30am 21.9 21.2 16.4 71 3.3 S 15 24 8 13 1015.9 1015.9 6.2
12/06:00am 21.1 20.7 16.3 74 2.9 S 13 22 7 12 1015.7 1015.7 6.2
12/05:30am 20.0 19.2 16.2 79 2.3 S 15 24 8 13 1015.4 1015.4 6.2
12/05:00am 19.5 19.6 16.5 83 1.8 S 11 20 6 11 1015.2 1015.2 6.2
12/04:30am 19.5 19.7 16.7 84 1.7 SSW 11 17 6 9 1015.0 1015.0 6.2
12/04:00am 19.7 20.0 16.9 84 1.7 SSW 11 17 6 9 1014.9 1014.9 6.2
12/03:30am 19.7 19.6 16.9 84 1.7 SSW 13 20 7 11 1014.8 1014.8 6.2
12/03:00am 19.9 19.9 17.3 85 1.6 SSW 13 20 7 11 1014.9 1014.9 6.2
12/02:30am 20.1 20.1 17.3 84 1.7 SSW 13 20 7 11 1014.9 1014.9 6.2
12/02:00am 20.3 21.3 17.7 85 1.6 SSW 9 13 5 7 1015.0 1015.0 6.2
12/01:30am 20.6 22.0 17.8 84 1.7 SSW 7 11 4 6 1015.2 1015.2 6.2
12/01:00am 21.2 22.0 17.4 79 2.3 SSW 9 15 5 8 1015.5 1015.5 6.2
12/12:30am 22.0 22.2 17.6 76 2.7 S 13 17 7 9 1015.8 1015.8 6.2
12/12:00am 22.4 23.0 17.8 75 2.9 S 11 17 6 9 1016.1 1016.1 6.2
 
Date/Time
EST
Temp
°C
App
Temp
°C
Dew
Point
°C
Rel
Hum
%
Delta-T
°C
Wind Press
QNH
hPa
Press
MSL
hPa
Rain since
9am
mm
Dir  Spd
km/h
Gust
km/h
Spd
kts
Gust
kts
11/11:30pm 22.9 23.4 18.4 76 2.8 S 13 19 7 10 1016.3 1016.3 6.2
11/11:00pm 23.0 23.5 18.3 75 2.9 SSE 13 17 7 9 1016.5 1016.5 6.2
11/10:30pm 23.1 24.2 18.8 77 2.7 SSE 11 19 6 10 1016.8 1016.8 6.2
11/10:00pm 23.2 24.5 19.4 79 2.4 SSE 11 20 6 11 1016.8 1016.8 6.2
11/09:30pm 23.0 25.1 20.9 88 1.4 SE 11 17 6 9 1016.7 1016.7 6.2
11/09:00pm 23.1 24.2 20.4 85 1.7 ESE 15 28 8 15 1016.6 1016.6 6.2
11/08:30pm 22.7 23.2 20.0 85 1.7 ESE 17 24 9 13 1016.3 1016.3 6.2
11/08:00pm 22.5 22.4 19.9 85 1.7 ESE 20 30 11 16 1016.2 1016.2 6.2
11/07:30pm 23.6 24.1 19.3 77 2.7 ESE 15 22 8 12 1016.1 1016.1 6.0
11/07:00pm 23.5 24.1 19.4 78 2.6 SSE 15 24 8 13 1016.0 1016.0 6.0
11/06:30pm 23.8 24.8 19.5 77 2.8 SE 13 20 7 11 1015.7 1015.7 6.0
11/06:00pm 23.9 24.2 19.6 77 2.8 SSE 17 30 9 16 1015.4 1015.4 6.0
11/05:30pm 24.0 25.1 19.7 77 2.8 SSE 13 20 7 11 1015.1 1015.1 6.0
11/05:00pm 23.7 24.8 20.4 82 2.1 SE 15 24 8 13 1014.9 1014.9 6.0
11/04:30pm 23.9 24.5 19.4 76 2.9 SE 15 28 8 15 1014.7 1014.7 6.0
11/04:00pm 23.6 25.1 21.3 87 1.5 SSE 15 30 8 16 1014.7 1014.7 6.0
11/03:30pm 21.8 21.8 20.1 90 1.1 SE 20 39 11 21 1014.9 1014.9 5.4
11/03:00pm 23.9 24.7 20.6 82 2.1 ESE 17 28 9 15 1014.9 1014.9 2.6

Other Formats:

Comma delimited format used in spreadsheet applications
http://www.bom.gov.au/fwo/IDQ60801/IDQ60801.94570.axf

JavaScript Object Notation format (JSON) in row-major order
http://www.bom.gov.au/fwo/IDQ60801/IDQ60801.94570.json